Time;durP1;ratioP1;P1;durP2;ratioP2;P2;SDS_P1;SDS_P2;PMS_P1;PMS_P2;Temp;Humidity;BMP_temperature;BMP_pressure;BME280_temperature;BME280_humidity;BME280_pressure;Samples;Min_cycle;Max_cycle;Signal;HPM_P1;HPM_P2
2022/01/20 00:02:29;;;;;;;10.00;6.33;;;4.80;99.90;;;;;;1884691;73;21107;-86
2022/01/20 00:08:19;;;;;;;7.65;5.65;;;4.90;99.90;;;;;;1951765;72;22309;-87
2022/01/20 00:26:50;;;;;;;6.62;4.85;;;5.00;99.90;;;;;;1963283;72;22174;-86
2022/01/20 00:58:39;;;;;;;4.28;2.95;;;5.10;99.90;;;;;;1787780;75;21063;-86
2022/01/20 01:01:30;;;;;;;4.15;3.08;;;5.10;99.90;;;;;;1890134;75;21047;-86
2022/01/20 01:05:19;;;;;;;;;;;5.10;99.90;;;;;;1818848;76;21133;-86
2022/01/20 01:21:11;;;;;;;8.18;5.08;;;4.60;99.90;;;;;;1945496;72;22126;-86
2022/01/20 01:26:28;;;;;;;9.73;6.62;;;4.50;99.90;;;;;;1941290;72;22162;-86
2022/01/20 01:29:36;;;;;;;9.55;6.97;;;4.50;99.90;;;;;;1894361;75;21207;-85
2022/01/20 01:32:17;;;;;;;11.43;7.67;;;4.50;99.90;;;;;;1883161;75;21079;-86
2022/01/20 01:35:09;;;;;;;9.88;7.22;;;4.50;99.90;;;;;;1888351;75;21165;-86
2022/01/20 01:43:51;;;;;;;9.25;6.95;;;4.50;99.90;;;;;;1943551;72;22201;-87
2022/01/20 01:49:23;;;;;;;9.95;7.62;;;4.50;99.90;;;;;;1955745;72;22252;-86
2022/01/20 01:52:15;;;;;;;6.60;4.25;;;4.50;99.90;;;;;;1905289;75;21098;-86
2022/01/20 01:55:09;;;;;;;10.32;7.12;;;4.60;99.90;;;;;;1904912;75;21146;-86
2022/01/20 02:00:43;;;;;;;10.48;7.37;;;4.60;99.90;;;;;;1960999;72;22219;-85
2022/01/20 02:03:43;;;;;;;9.73;6.25;;;4.60;99.90;;;;;;1917408;75;21153;-85
2022/01/20 02:06:51;;;;;;;9.85;7.50;;;4.60;99.90;;;;;;1925138;73;21114;-86
2022/01/20 02:21:51;;;;;;;12.47;8.03;;;4.50;99.90;;;;;;1951009;72;22148;-85
2022/01/20 02:24:44;;;;;;;10.82;7.75;;;4.50;99.90;;;;;;1951166;73;21080;-85
2022/01/20 02:27:37;;;;;;;12.03;8.43;;;4.50;99.90;;;;;;1924746;73;21093;-86
2022/01/20 02:35:52;;;;;;;11.88;8.45;;;4.40;99.90;;;;;;1949618;72;22200;-86
2022/01/20 02:38:54;;;;;;;11.88;8.20;;;4.40;99.90;;;;;;1905862;74;21174;-87
2022/01/20 02:47:37;;;;;;;11.80;8.08;;;4.40;99.90;;;;;;1916991;75;21087;-85
2022/01/20 02:50:30;;;;;;;12.33;8.60;;;4.30;99.90;;;;;;1915617;75;21038;-84
2022/01/20 02:53:22;;;;;;;12.10;8.30;;;4.30;99.90;;;;;;1917654;74;21175;-85
2022/01/20 02:56:13;;;;;;;14.20;9.43;;;4.30;99.90;;;;;;1905274;74;21154;-85
2022/01/20 02:59:05;;;;;;;12.60;9.08;;;4.20;99.90;;;;;;1903108;74;21092;-85
2022/01/20 03:01:56;;;;;;;12.58;8.78;;;4.20;99.90;;;;;;1918396;74;21119;-84
2022/01/20 03:04:49;;;;;;;12.33;9.28;;;4.20;99.90;;;;;;1918504;74;21124;-85
2022/01/20 03:07:45;;;;;;;13.08;9.03;;;4.20;99.90;;;;;;1883237;76;21125;-85
2022/01/20 03:13:18;;;;;;;13.20;9.13;;;4.00;99.90;;;;;;1938708;72;22660;-86
2022/01/20 03:16:10;;;;;;;12.82;9.05;;;4.00;99.90;;;;;;1875660;75;21118;-85
2022/01/20 03:21:41;;;;;;;9.75;6.95;;;4.10;99.90;;;;;;1976129;72;22191;-86
2022/01/20 03:27:16;;;;;;;11.30;7.47;;;4.10;99.90;;;;;;1951674;72;22067;-86
2022/01/20 03:30:11;;;;;;;14.10;7.55;;;4.10;99.90;;;;;;1897425;75;21265;-86
2022/01/20 03:36:42;;;;;;;;;;;;;;;;;;;;;
2022/01/20 03:44:08;;;;;;;11.33;7.78;;;4.00;99.90;;;;;;1831309;74;21128;-85
2022/01/20 03:47:02;;;;;;;10.30;7.33;;;4.00;99.90;;;;;;1894537;75;21492;-85
2022/01/20 03:50:05;;;;;;;13.68;8.20;;;4.00;99.90;;;;;;1892315;75;21197;-85
2022/01/20 03:52:45;;;;;;;11.83;8.48;;;3.90;99.90;;;;;;1887467;75;21125;-85
2022/01/20 03:55:37;;;;;;;10.23;6.90;;;4.00;99.90;;;;;;1882293;75;21063;-86
2022/01/20 03:58:34;;;;;;;10.40;7.47;;;3.90;99.90;;;;;;1883490;75;21189;-86
2022/01/20 04:01:27;;;;;;;6.92;4.90;;;4.00;99.90;;;;;;1894919;75;21185;-86
2022/01/20 04:07:07;;;;;;;10.32;7.08;;;4.10;99.90;;;;;;1976476;72;22170;-86
2022/01/20 04:09:59;;;;;;;7.95;5.53;;;4.10;99.90;;;;;;1924051;73;21087;-86
2022/01/20 04:12:51;;;;;;;9.98;7.35;;;4.20;99.90;;;;;;1940177;73;21172;-85
2022/01/20 04:15:43;;;;;;;7.45;5.65;;;4.20;99.90;;;;;;1917649;75;21043;-86
2022/01/20 04:21:13;;;;;;;7.20;5.40;;;4.30;99.90;;;;;;1948242;72;22154;-86
2022/01/20 04:24:08;;;;;;;7.58;5.25;;;4.30;99.90;;;;;;1907057;75;21098;-85
2022/01/20 04:27:01;;;;;;;6.03;4.62;;;4.40;99.90;;;;;;1902229;75;21479;-86
2022/01/20 04:29:52;;;;;;;6.58;5.00;;;4.30;99.90;;;;;;1898248;75;21047;-85
2022/01/20 04:32:55;;;;;;;6.53;4.97;;;4.30;99.90;;;;;;1906767;75;21122;-85
2022/01/20 04:35:46;;;;;;;;;;;4.30;99.90;;;;;;1914731;75;21147;-85
2022/01/20 04:41:20;;;;;;;8.05;5.35;;;4.20;99.90;;;;;;1963937;72;22558;-86
2022/01/20 04:57:39;;;;;;;6.78;4.65;;;4.30;99.90;;;;;;1886568;75;21055;-85
2022/01/20 05:00:33;;;;;;;8.03;5.30;;;4.50;99.90;;;;;;1894795;75;21143;-85
2022/01/20 05:03:47;;;;;;;8.03;5.70;;;4.60;99.90;;;;;;1903100;75;21088;-85
2022/01/20 05:06:43;;;;;;;7.80;5.67;;;4.50;99.90;;;;;;1883689;75;21165;-85
2022/01/20 05:09:38;;;;;;;8.08;5.70;;;4.50;99.90;;;;;;1904953;75;21106;-85
2022/01/20 05:12:59;;;;;;;8.60;6.50;;;4.40;99.90;;;;;;1890508;75;21099;-84
2022/01/20 05:21:15;;;;;;;7.58;5.70;;;4.50;99.90;;;;;;1942898;72;22115;-86
2022/01/20 05:24:11;;;;;;;8.30;5.10;;;4.50;99.90;;;;;;1879576;75;21050;-85
2022/01/20 05:27:08;;;;;;;7.42;5.35;;;4.50;99.90;;;;;;1886681;75;21129;-85
2022/01/20 05:30:13;;;;;;;8.65;5.55;;;4.50;99.90;;;;;;1896224;75;21090;-86
2022/01/20 05:36:18;;;;;;;7.20;5.00;;;4.40;99.90;;;;;;1952603;72;22122;-86
2022/01/20 05:52:42;;;;;;;7.30;5.70;;;4.40;99.90;;;;;;1970029;72;28048;-93
2022/01/20 05:58:25;;;;;;;6.90;5.17;;;4.60;99.90;;;;;;1951028;72;22155;-93
2022/01/20 06:01:25;;;;;;;7.78;5.33;;;4.60;99.90;;;;;;1896725;75;21565;-93
2022/01/20 06:04:27;;;;;;;8.50;6.42;;;4.60;99.90;;;;;;1885031;76;21211;-92
2022/01/20 06:07:36;;;;;;;10.28;6.87;;;4.60;99.90;;;;;;1899558;75;21150;-92
2022/01/20 06:10:37;;;;;;;11.25;6.87;;;4.60;99.90;;;;;;1904354;75;21105;-92
2022/01/20 06:17:35;;;;;;;10.68;7.22;;;4.50;99.90;;;;;;1993033;71;22124;-92
2022/01/20 06:20:28;;;;;;;10.88;6.95;;;4.40;99.90;;;;;;1970435;72;21079;-92
2022/01/20 06:23:21;;;;;;;9.08;6.20;;;4.40;99.90;;;;;;2032558;70;21078;-94
2022/01/20 06:26:21;;;;;;;10.15;7.35;;;4.50;99.90;;;;;;2032982;70;21091;-94
2022/01/20 06:29:17;;;;;;;10.55;7.25;;;4.50;99.90;;;;;;2035901;70;21030;-93
2022/01/20 06:36:47;;;;;;;8.13;5.35;;;4.50;99.90;;;;;;1941829;74;22217;-93
2022/01/20 06:39:39;;;;;;;8.33;5.83;;;4.50;99.90;;;;;;1917953;75;21168;-93
2022/01/20 06:42:31;;;;;;;7.92;5.70;;;4.40;99.90;;;;;;1886970;75;21163;-92
2022/01/20 07:25:27;;;;;;;10.85;6.40;;;3.90;99.90;;;;;;2077517;68;22120;-86
2022/01/20 07:28:24;;;;;;;12.85;7.03;;;3.90;99.90;;;;;;2018636;69;21144;-85
2022/01/20 07:31:20;;;;;;;10.98;7.37;;;4.00;99.90;;;;;;2011382;69;21031;-86
2022/01/20 07:36:56;;;;;;;12.35;8.15;;;4.00;99.90;;;;;;1946029;72;22104;-87
2022/01/20 07:39:50;;;;;;;12.28;7.67;;;3.90;99.90;;;;;;1905870;74;21107;-86
2022/01/20 07:42:41;;;;;;;13.62;7.45;;;3.80;99.90;;;;;;1872619;75;21124;-86
2022/01/20 07:45:35;;;;;;;13.53;8.95;;;3.70;99.90;;;;;;1894593;75;21122;-86
2022/01/20 07:48:34;;;;;;;13.80;8.78;;;3.70;99.90;;;;;;1847763;75;21114;-88
2022/01/20 07:51:27;;;;;;;13.13;8.43;;;3.70;99.90;;;;;;1894103;73;21114;-85
2022/01/20 07:54:20;;;;;;;12.70;8.45;;;3.70;99.90;;;;;;1892768;75;21156;-85
2022/01/20 07:57:12;;;;;;;15.03;8.73;;;3.70;99.90;;;;;;1883343;75;21052;-85
2022/01/20 08:02:44;;;;;;;14.70;8.45;;;3.70;99.90;;;;;;1954413;72;22366;-86
2022/01/20 08:05:37;;;;;;;11.88;8.45;;;3.80;99.90;;;;;;1905709;75;21156;-85
2022/01/20 08:08:32;;;;;;;9.20;6.40;;;3.80;99.90;;;;;;1899434;75;21128;-85
2022/01/20 08:11:39;;;;;;;10.85;7.22;;;3.90;99.90;;;;;;1870723;75;21184;-85
2022/01/20 08:14:41;;;;;;;10.05;7.15;;;4.00;99.90;;;;;;1902981;75;21055;-85
2022/01/20 08:17:34;;;;;;;11.10;7.65;;;4.00;99.90;;;;;;1895549;75;21115;-85
2022/01/20 08:20:28;;;;;;;10.08;7.55;;;4.00;99.90;;;;;;1901247;75;21097;-85
2022/01/20 08:26:00;;;;;;;11.55;8.10;;;4.10;99.90;;;;;;1941411;72;22680;-86
2022/01/20 08:31:31;;;;;;;14.13;8.28;;;4.20;99.90;;;;;;1950351;72;22173;-86
2022/01/20 08:37:05;;;;;;;13.65;8.35;;;4.30;99.90;;;;;;1932252;72;22182;-77
2022/01/20 08:39:56;;;;;;;12.45;8.18;;;4.40;99.90;;;;;;1907301;75;21169;-76
2022/01/20 08:42:51;;;;;;;13.08;8.40;;;4.40;99.90;;;;;;1885035;75;21115;-77
2022/01/20 08:45:44;;;;;;;9.20;6.33;;;4.40;99.90;;;;;;1894440;75;21106;-76
2022/01/20 08:51:17;;;;;;;10.88;7.47;;;4.60;99.90;;;;;;1921217;72;22148;-77
2022/01/20 08:54:20;;;;;;;11.30;8.33;;;4.50;99.90;;;;;;1920278;73;21101;-77
2022/01/20 08:57:13;;;;;;;14.60;8.45;;;4.50;99.90;;;;;;1950881;73;21188;-77
2022/01/20 09:02:48;;;;;;;10.10;7.60;;;4.70;99.90;;;;;;1929400;72;22270;-76
2022/01/20 09:16:33;;;;;;;9.15;6.78;;;4.80;99.90;;;;;;1950254;72;22250;-77
2022/01/20 09:19:39;;;;;;;8.85;6.40;;;4.90;99.90;;;;;;1894851;75;21055;-76
2022/01/20 09:22:31;;;;;;;8.43;5.62;;;4.90;99.90;;;;;;1883723;75;21134;-76
2022/01/20 09:25:23;;;;;;;8.78;6.62;;;4.90;99.90;;;;;;1904309;75;21168;-76
2022/01/20 09:31:00;;;;;;;10.08;5.60;;;5.20;99.90;;;;;;1935669;72;22927;-77
2022/01/20 09:33:51;;;;;;;9.40;6.22;;;5.20;99.90;;;;;;1891021;75;21602;-77
2022/01/20 09:39:23;;;;;;;9.23;5.60;;;5.50;99.90;;;;;;1936707;72;22123;-77
2022/01/20 09:42:20;;;;;;;10.10;5.92;;;5.40;99.90;;;;;;1910765;75;21140;-76
2022/01/20 09:45:11;;;;;;;10.55;6.15;;;5.30;99.90;;;;;;1911600;75;21195;-77
2022/01/20 09:50:42;;;;;;;8.70;5.47;;;5.30;99.90;;;;;;1934807;72;22099;-77
2022/01/20 09:53:37;;;;;;;8.70;5.47;;;5.30;99.90;;;;;;1884439;75;21102;-76
2022/01/20 09:56:30;;;;;;;7.28;5.25;;;5.40;99.90;;;;;;1882420;75;21083;-76
2022/01/20 09:59:21;;;;;;;7.55;5.15;;;5.50;99.90;;;;;;1884329;75;21192;-77
2022/01/20 10:02:18;;;;;;;7.72;4.53;;;5.40;99.90;;;;;;1900431;75;21051;-76
2022/01/20 10:05:08;;;;;;;8.23;4.80;;;5.50;99.90;;;;;;1898032;75;21051;-76
2022/01/20 10:10:53;;;;;;;6.35;4.55;;;5.50;99.90;;;;;;1954735;72;22111;-76
2022/01/20 10:16:24;;;;;;;5.78;4.40;;;5.60;99.90;;;;;;1927093;72;22342;-77
2022/01/20 10:19:28;;;;;;;5.90;3.87;;;5.60;99.90;;;;;;1906487;75;21075;-76
2022/01/20 10:22:24;;;;;;;5.33;3.83;;;5.70;99.90;;;;;;1912044;75;21109;-76
2022/01/20 10:25:20;;;;;;;5.55;3.50;;;5.70;99.90;;;;;;1918233;73;21022;-76
2022/01/20 10:30:59;;;;;;;5.42;3.60;;;5.90;99.90;;;;;;1941249;72;22604;-77
2022/01/20 10:33:51;;;;;;;4.75;2.92;;;6.00;99.90;;;;;;1927970;73;21063;-77
2022/01/20 10:36:52;;;;;;;5.62;3.42;;;5.90;99.90;;;;;;1901844;75;21137;-77
2022/01/20 10:39:48;;;;;;;6.28;3.40;;;6.00;99.90;;;;;;1908339;75;21173;-77
2022/01/20 10:42:43;;;;;;;5.42;3.47;;;6.00;99.90;;;;;;1885396;75;21066;-77
2022/01/20 10:45:35;;;;;;;7.70;3.35;;;6.20;99.90;;;;;;1906681;73;21599;-77
2022/01/20 10:48:27;;;;;;;4.67;3.27;;;6.10;99.90;;;;;;1889883;75;21212;-77
2022/01/20 10:54:04;;;;;;;5.78;3.30;;;6.00;99.90;;;;;;1943111;72;22115;-77
2022/01/20 10:56:58;;;;;;;6.03;2.95;;;6.20;99.90;;;;;;1923605;73;21132;-79
2022/01/20 10:59:53;;;;;;;3.50;2.05;;;6.30;99.90;;;;;;1917142;75;21094;-78
2022/01/20 11:02:47;;;;;;;5.87;3.90;;;6.30;99.90;;;;;;1917474;75;21059;-78
2022/01/20 11:10:59;;;;;;;4.85;3.45;;;6.40;99.90;;;;;;1936484;72;22165;-78
2022/01/20 11:16:41;;;;;;;6.92;3.67;;;6.50;99.90;;;;;;1930992;72;22154;-77
2022/01/20 11:19:37;;;;;;;6.12;3.50;;;6.50;99.90;;;;;;1897567;75;21097;-79
2022/01/20 11:22:29;;;;;;;5.62;3.30;;;6.50;99.90;;;;;;1878426;75;21635;-78
2022/01/20 11:28:09;;;;;;;4.33;3.08;;;6.80;99.90;;;;;;1941592;72;22220;-77
2022/01/20 11:31:05;;;;;;;5.22;3.05;;;6.80;99.90;;;;;;1935778;74;21135;-77
2022/01/20 11:34:14;;;;;;;4.42;3.20;;;6.80;99.90;;;;;;1913403;75;21193;-77
2022/01/20 11:37:10;;;;;;;5.40;3.70;;;6.90;99.90;;;;;;1913951;75;21054;-78
2022/01/20 11:40:18;;;;;;;5.35;3.70;;;7.00;99.90;;;;;;1913311;75;21141;-78
2022/01/20 11:45:51;;;;;;;5.67;3.77;;;7.20;99.90;;;;;;1968193;72;22111;-77
2022/01/20 11:48:59;;;;;;;6.15;3.05;;;7.20;99.90;;;;;;1907713;74;21113;-78
2022/01/20 11:51:53;;;;;;;6.15;3.58;;;7.20;99.90;;;;;;1927945;74;21106;-77
2022/01/20 11:57:30;;;;;;;4.90;3.62;;;7.20;99.90;;;;;;1955615;72;22122;-78
2022/01/20 12:00:25;;;;;;;5.17;3.60;;;7.20;99.90;;;;;;1916935;74;21059;-77
2022/01/20 12:03:17;;;;;;;5.25;4.08;;;7.20;99.90;;;;;;1894090;75;21188;-77
2022/01/20 12:06:19;;;;;;;5.20;4.28;;;7.10;99.90;;;;;;1895283;75;21096;-78
2022/01/20 12:11:58;;;;;;;5.53;4.00;;;7.00;99.90;;;;;;1945801;72;22174;-77
2022/01/20 12:14:54;;;;;;;5.50;3.70;;;7.00;99.90;;;;;;1917001;75;21625;-78
2022/01/20 12:18:01;;;;;;;5.45;4.22;;;7.10;99.90;;;;;;1906783;75;21113;-78
2022/01/20 12:20:54;;;;;;;7.30;4.47;;;7.10;99.90;;;;;;1906777;75;21088;-77
2022/01/20 12:23:46;;;;;;;9.43;4.50;;;7.10;99.90;;;;;;1901812;75;21157;-78
2022/01/20 12:26:38;;;;;;;6.50;4.45;;;7.20;99.90;;;;;;1917650;75;21051;-78
2022/01/20 12:29:38;;;;;;;7.72;5.33;;;7.20;99.90;;;;;;1895558;75;21168;-80
2022/01/20 12:32:29;;;;;;;7.65;4.78;;;7.20;99.90;;;;;;1913689;75;21576;-78
2022/01/20 12:37:58;;;;;;;7.47;4.47;;;7.30;99.90;;;;;;1955802;72;22138;-79
2022/01/20 12:41:02;;;;;;;6.17;4.83;;;7.30;99.90;;;;;;1911630;75;21480;-77
2022/01/20 12:43:57;;;;;;;7.30;4.35;;;7.30;99.90;;;;;;1901110;75;21143;-82
2022/01/20 12:46:49;;;;;;;5.83;4.00;;;7.30;99.90;;;;;;1895382;75;21091;-83
2022/01/20 12:49:41;;;;;;;8.13;4.87;;;7.30;99.90;;;;;;1913121;75;21078;-83
2022/01/20 12:52:39;;;;;;;7.10;4.50;;;7.30;99.90;;;;;;1897497;75;21088;-82
2022/01/20 12:58:09;;;;;;;4.87;3.62;;;7.30;99.90;;;;;;1944834;72;22219;-84
2022/01/20 13:01:04;;;;;;;6.67;4.33;;;7.30;99.90;;;;;;1897411;75;21141;-82
2022/01/20 13:06:46;;;;;;;5.85;4.10;;;7.30;99.90;;;;;;1939848;72;22602;-82
2022/01/20 13:09:43;;;;;;;5.15;3.85;;;7.20;99.90;;;;;;1901129;74;21082;-83
2022/01/20 13:12:39;;;;;;;5.03;3.62;;;7.30;99.90;;;;;;1897488;75;21138;-83
2022/01/20 13:15:32;;;;;;;5.42;3.92;;;7.40;99.90;;;;;;1900139;75;21145;-83
2022/01/20 13:21:07;;;;;;;7.10;4.05;;;7.30;99.90;;;;;;1941565;72;22118;-83
2022/01/20 13:26:48;;;;;;;4.30;3.33;;;7.40;99.90;;;;;;1941519;72;22299;-83
2022/01/20 13:29:44;;;;;;;7.60;3.92;;;7.40;99.90;;;;;;1904704;75;21056;-82
2022/01/20 13:38:04;;;;;;;7.95;3.80;;;7.40;99.90;;;;;;1951903;72;22273;-83
2022/01/20 13:40:57;;;;;;;5.72;4.00;;;7.30;99.90;;;;;;1897031;75;21130;-83
2022/01/20 13:47:08;;;;;;;4.62;3.42;;;7.30;99.90;;;;;;1891391;75;21153;-83
2022/01/20 13:50:00;;;;;;;5.03;3.83;;;7.30;99.90;;;;;;1873661;75;21514;-85
2022/01/20 13:52:52;;;;;;;5.62;3.77;;;7.20;99.90;;;;;;1889002;75;21098;-82
2022/01/20 13:55:48;;;;;;;7.95;3.67;;;7.20;99.90;;;;;;1875967;75;21114;-82
2022/01/20 14:01:21;;;;;;;5.85;3.37;;;7.10;99.90;;;;;;1953834;72;22249;-83
2022/01/20 14:06:57;;;;;;;7.47;4.22;;;7.00;99.90;;;;;;1949052;72;22904;-84
2022/01/20 14:09:49;;;;;;;4.75;3.50;;;6.80;99.90;;;;;;1894252;75;21600;-84
2022/01/20 14:12:41;;;;;;;6.58;4.42;;;6.90;99.90;;;;;;1884860;75;21096;-85
2022/01/20 14:18:21;;;;;;;5.50;4.08;;;6.70;99.90;;;;;;1944933;72;22215;-84
2022/01/20 14:21:08;;;;;;;7.53;3.55;;;6.70;99.90;;;;;;1906798;75;21197;-84
2022/01/20 14:24:01;;;;;;;4.78;3.52;;;6.70;99.90;;;;;;1905721;75;21084;-85
2022/01/20 14:26:57;;;;;;;4.78;3.35;;;6.70;99.90;;;;;;1900628;75;21056;-84
2022/01/20 14:29:54;;;;;;;5.60;3.67;;;6.70;99.90;;;;;;1903552;75;21083;-83
2022/01/20 14:35:31;;;;;;;4.42;3.00;;;6.70;99.90;;;;;;1951265;72;22158;-83
2022/01/20 14:38:25;;;;;;;5.03;2.60;;;6.60;99.90;;;;;;1903777;75;21173;-85
2022/01/20 14:41:17;;;;;;;5.62;3.42;;;6.60;99.90;;;;;;1884564;75;21130;-85
2022/01/20 14:44:08;;;;;;;4.47;3.22;;;6.60;99.90;;;;;;1893348;75;21055;-84
2022/01/20 14:47:01;;;;;;;5.20;3.25;;;6.60;99.90;;;;;;1911676;75;21100;-83
2022/01/20 14:49:53;;;;;;;3.77;2.37;;;6.50;99.90;;;;;;1884543;75;21206;-85
2022/01/20 14:52:45;;;;;;;5.97;3.72;;;6.50;99.90;;;;;;1884392;76;21063;-82
2022/01/20 14:55:39;;;;;;;4.78;3.27;;;6.40;99.90;;;;;;1916528;75;21091;-83
2022/01/20 14:58:31;;;;;;;5.20;3.35;;;6.40;99.90;;;;;;1895672;75;21146;-83
2022/01/20 15:01:22;;;;;;;4.65;3.12;;;6.20;99.90;;;;;;1895608;75;21096;-82
2022/01/20 15:04:14;;;;;;;5.85;3.12;;;6.10;99.90;;;;;;1900909;75;21083;-82
2022/01/20 15:07:07;;;;;;;4.90;2.85;;;6.10;99.90;;;;;;1896456;75;21109;-84
2022/01/20 15:09:59;;;;;;;3.37;2.30;;;6.10;99.90;;;;;;1895347;75;21087;-84
2022/01/20 15:12:59;;;;;;;3.85;2.98;;;6.00;99.90;;;;;;1895575;75;21055;-84
2022/01/20 15:15:46;;;;;;;4.78;2.67;;;6.00;99.90;;;;;;1917451;75;21168;-85
2022/01/20 15:18:41;;;;;;;3.75;2.50;;;6.00;99.90;;;;;;1884723;75;21144;-83
2022/01/20 15:21:34;;;;;;;7.80;3.05;;;6.00;99.90;;;;;;1906634;75;21108;-82
2022/01/20 15:24:29;;;;;;;6.72;3.70;;;5.90;99.90;;;;;;1906573;75;21286;-81
2022/01/20 15:27:20;;;;;;;8.10;2.77;;;5.80;99.90;;;;;;1906429;75;21208;-81
2022/01/20 15:30:16;;;;;;;4.45;2.80;;;5.90;99.90;;;;;;1884495;76;21055;-87
2022/01/20 15:33:08;;;;;;;11.40;3.62;;;5.80;99.90;;;;;;1898367;75;21149;-82
2022/01/20 15:36:00;;;;;;;5.37;3.27;;;5.80;99.90;;;;;;1877325;75;21125;-75
2022/01/20 15:38:51;;;;;;;4.25;3.02;;;5.80;99.90;;;;;;1875042;75;21231;-75
2022/01/20 15:41:45;;;;;;;4.28;3.40;;;5.80;99.90;;;;;;1885543;75;21110;-77
2022/01/20 15:44:36;;;;;;;3.83;2.47;;;5.80;99.90;;;;;;1899440;75;21080;-77
2022/01/20 15:47:28;;;;;;;5.53;3.17;;;5.90;99.90;;;;;;1894355;75;21523;-75
2022/01/20 15:50:19;;;;;;;4.90;2.95;;;5.80;99.90;;;;;;1912974;75;21266;-76
2022/01/20 15:53:11;;;;;;;4.97;3.40;;;5.80;99.90;;;;;;1904368;75;21052;-76
2022/01/20 15:56:02;;;;;;;3.83;2.80;;;5.80;99.90;;;;;;1901360;75;21122;-78
2022/01/20 15:58:54;;;;;;;5.87;3.08;;;5.80;99.90;;;;;;1906155;75;21163;-78
2022/01/20 16:01:45;;;;;;;4.42;3.20;;;5.90;99.90;;;;;;1906027;75;21059;-77
2022/01/20 16:04:37;;;;;;;5.20;3.33;;;5.90;99.90;;;;;;1905643;75;21121;-76
2022/01/20 16:07:29;;;;;;;3.40;2.45;;;5.90;99.90;;;;;;1888304;75;21083;-75
2022/01/20 16:10:20;;;;;;;3.98;2.80;;;5.90;99.90;;;;;;1895224;75;21160;-75
2022/01/20 16:13:12;;;;;;;3.83;2.83;;;5.80;99.90;;;;;;1882791;75;21103;-75
2022/01/20 16:16:05;;;;;;;3.65;2.85;;;5.80;99.90;;;;;;1882645;75;21113;-76
2022/01/20 16:18:57;;;;;;;5.70;3.35;;;5.80;99.90;;;;;;1898081;75;21157;-76
2022/01/20 16:21:48;;;;;;;4.53;3.37;;;5.80;99.90;;;;;;1883967;75;21151;-76
2022/01/20 16:24:40;;;;;;;7.90;4.92;;;5.90;99.90;;;;;;1892056;75;21562;-76
2022/01/20 16:27:32;;;;;;;5.17;4.03;;;5.80;99.90;;;;;;1882619;75;21055;-76
2022/01/20 16:30:23;;;;;;;7.05;3.95;;;5.80;99.90;;;;;;1896481;75;21199;-75
2022/01/20 16:33:16;;;;;;;5.80;3.67;;;5.80;99.90;;;;;;1877308;76;21238;-76
2022/01/20 16:36:08;;;;;;;6.65;4.28;;;5.80;99.90;;;;;;1893546;75;21140;-75
2022/01/20 16:39:01;;;;;;;6.22;4.12;;;5.80;99.90;;;;;;1889816;75;21065;-76
2022/01/20 16:41:53;;;;;;;7.05;4.35;;;5.90;99.90;;;;;;1883727;76;21128;-76
2022/01/20 16:44:44;;;;;;;5.20;3.70;;;5.90;99.90;;;;;;1884042;76;21121;-76
2022/01/20 16:47:38;;;;;;;5.45;4.00;;;5.90;99.90;;;;;;1886497;75;21127;-77
2022/01/20 16:50:29;;;;;;;5.33;3.98;;;5.90;99.90;;;;;;1912073;75;21212;-76
2022/01/20 16:53:20;;;;;;;5.03;3.77;;;5.80;99.90;;;;;;1890871;75;21719;-76
2022/01/20 16:56:13;;;;;;;6.25;4.08;;;5.80;99.90;;;;;;1916659;75;21162;-76
2022/01/20 16:59:04;;;;;;;5.20;4.10;;;5.80;99.90;;;;;;1896633;75;21092;-76
2022/01/20 17:01:57;;;;;;;8.58;4.35;;;5.80;99.90;;;;;;1894475;75;21039;-76
2022/01/20 17:04:48;;;;;;;7.72;4.65;;;5.70;99.90;;;;;;1894613;75;21637;-75
2022/01/20 17:07:40;;;;;;;6.20;4.50;;;5.70;99.90;;;;;;1897263;75;21128;-76
2022/01/20 17:10:31;;;;;;;7.53;4.35;;;5.70;99.90;;;;;;1897873;75;21122;-76
2022/01/20 17:13:23;;;;;;;6.58;4.03;;;5.80;99.90;;;;;;1901224;75;21100;-76
2022/01/20 17:18:52;;;;;;;8.93;4.62;;;5.70;99.90;;;;;;1949885;72;22161;-76
2022/01/20 17:21:45;;;;;;;6.30;4.50;;;5.80;99.90;;;;;;1905045;75;21121;-76
2022/01/20 17:24:36;;;;;;;6.37;4.33;;;5.80;99.90;;;;;;1906431;75;21117;-76
2022/01/20 17:27:28;;;;;;;6.10;4.53;;;5.80;99.90;;;;;;1886330;75;21831;-76
2022/01/20 17:43:44;;;;;;;5.42;3.20;;;5.70;99.90;;;;;;1935234;72;22193;-86
2022/01/20 17:46:35;;;;;;;5.75;4.20;;;5.70;99.90;;;;;;1885389;75;21106;-87
2022/01/20 17:49:27;;;;;;;5.90;4.28;;;5.70;99.90;;;;;;1899773;75;21117;-87
2022/01/20 17:52:27;;;;;;;6.17;4.28;;;5.70;99.90;;;;;;1885909;75;21102;-87
2022/01/20 17:55:37;;;;;;;5.75;3.98;;;5.70;99.90;;;;;;1890467;75;21633;-87
2022/01/20 18:01:48;;;;;;;5.03;3.85;;;5.60;99.90;;;;;;1910473;75;21170;-86
2022/01/20 18:04:42;;;;;;;5.40;4.12;;;5.60;99.90;;;;;;1906392;75;21142;-87
2022/01/20 18:07:34;;;;;;;5.58;3.80;;;5.70;99.90;;;;;;1903142;75;21155;-87
2022/01/20 18:10:25;;;;;;;6.00;4.20;;;5.70;99.90;;;;;;1898516;75;21109;-87
2022/01/20 18:13:17;;;;;;;6.22;4.20;;;5.70;99.90;;;;;;1892196;75;21286;-87
2022/01/20 18:16:08;;;;;;;5.50;3.98;;;5.60;99.90;;;;;;1884452;75;21058;-87
2022/01/20 18:19:00;;;;;;;5.30;3.70;;;5.60;99.90;;;;;;1886007;75;21079;-87
2022/01/20 18:24:31;;;;;;;4.92;3.62;;;5.60;99.90;;;;;;1940798;72;22194;-87
2022/01/20 18:27:25;;;;;;;4.83;3.65;;;5.60;99.90;;;;;;1898891;75;21103;-86
2022/01/20 18:32:55;;;;;;;6.92;4.28;;;5.60;99.90;;;;;;1926346;72;22148;-87
2022/01/20 18:35:49;;;;;;;5.00;3.98;;;5.50;99.90;;;;;;1910345;75;21121;-86
2022/01/20 18:38:41;;;;;;;5.80;4.20;;;5.50;99.90;;;;;;1869177;76;21125;-86
2022/01/20 18:44:14;;;;;;;5.42;4.00;;;5.50;99.90;;;;;;1934915;72;22146;-86
2022/01/20 18:47:05;;;;;;;5.40;3.72;;;5.50;99.90;;;;;;1900463;75;21124;-86
2022/01/20 18:49:57;;;;;;;5.50;4.40;;;5.50;99.90;;;;;;1873149;76;21051;-86
2022/01/20 18:52:52;;;;;;;6.60;3.83;;;5.50;99.90;;;;;;1878456;75;21091;-87
2022/01/20 18:55:43;;;;;;;6.12;4.20;;;5.50;99.90;;;;;;1883402;75;21081;-86
2022/01/20 18:58:36;;;;;;;5.83;3.83;;;5.50;99.90;;;;;;1901816;75;21561;-87
2022/01/20 19:01:30;;;;;;;6.10;4.10;;;5.50;99.90;;;;;;1883276;75;21125;-86
2022/01/20 19:04:27;;;;;;;4.78;3.75;;;5.40;99.90;;;;;;1902858;75;21137;-86
2022/01/20 19:09:54;;;;;;;5.75;3.85;;;5.50;99.90;;;;;;1930937;72;22269;-87
2022/01/20 19:15:24;;;;;;;4.60;3.12;;;5.60;99.90;;;;;;1955859;72;22248;-86
2022/01/20 19:18:17;;;;;;;5.08;3.55;;;5.50;99.90;;;;;;1914264;74;21129;-86
2022/01/20 19:21:09;;;;;;;4.92;3.30;;;5.60;99.90;;;;;;1906645;75;21059;-86
2022/01/20 19:24:00;;;;;;;5.58;3.17;;;5.60;99.90;;;;;;1904028;75;21055;-86
2022/01/20 19:26:52;;;;;;;5.90;3.77;;;5.60;99.90;;;;;;1901193;75;21483;-86
2022/01/20 19:29:44;;;;;;;5.62;3.40;;;5.60;99.90;;;;;;1905440;75;21125;-86
2022/01/20 19:35:19;;;;;;;7.55;3.65;;;5.60;99.90;;;;;;1957421;72;22136;-86
2022/01/20 19:38:12;;;;;;;5.30;3.05;;;5.70;99.90;;;;;;1917047;75;21133;-86
2022/01/20 19:41:04;;;;;;;5.08;3.62;;;5.70;99.90;;;;;;1885061;75;21144;-85
2022/01/20 19:46:42;;;;;;;5.17;2.77;;;5.70;99.90;;;;;;1942807;72;22267;-86
2022/01/20 19:49:34;;;;;;;3.50;2.37;;;5.80;99.90;;;;;;1928685;73;21060;-86
2022/01/20 19:55:15;;;;;;;5.33;2.87;;;5.80;99.90;;;;;;1952519;72;22564;-86
2022/01/20 19:58:07;;;;;;;4.45;2.58;;;5.80;99.90;;;;;;1930857;73;21503;-86
2022/01/20 20:03:45;;;;;;;4.87;2.60;;;5.90;99.90;;;;;;1924987;72;22225;-86
2022/01/20 20:09:13;;;;;;;4.47;2.10;;;5.90;99.90;;;;;;1934779;72;22192;-86
2022/01/20 20:12:06;;;;;;;4.05;2.08;;;5.90;99.90;;;;;;1903184;75;21051;-86
2022/01/20 20:17:39;;;;;;;2.77;2.00;;;5.90;99.90;;;;;;1934256;72;22172;-86
2022/01/20 20:20:31;;;;;;;6.17;2.72;;;5.90;99.90;;;;;;1886579;75;21106;-86
2022/01/20 20:26:03;;;;;;;5.58;2.12;;;5.80;99.90;;;;;;1947813;72;22176;-86
2022/01/20 20:28:54;;;;;;;3.65;1.75;;;5.80;99.90;;;;;;1926887;73;21063;-86
2022/01/20 20:31:46;;;;;;;2.60;1.77;;;5.80;99.90;;;;;;1924341;73;21053;-85
2022/01/20 20:34:39;;;;;;;2.55;1.90;;;5.80;99.90;;;;;;1922436;73;21116;-87
2022/01/20 20:37:31;;;;;;;3.17;1.65;;;5.70;99.90;;;;;;1917592;75;21164;-86
2022/01/20 20:40:24;;;;;;;3.80;2.08;;;5.70;99.90;;;;;;1917503;75;21098;-86
2022/01/20 20:43:16;;;;;;;2.47;1.35;;;5.80;99.90;;;;;;1917402;75;21048;-86
2022/01/20 20:46:07;;;;;;;3.65;1.77;;;5.80;99.90;;;;;;1917628;75;21099;-86
2022/01/20 20:48:58;;;;;;;3.50;1.72;;;5.80;99.90;;;;;;1926697;73;21062;-86
2022/01/20 20:51:50;;;;;;;4.28;1.80;;;5.80;99.90;;;;;;1924796;73;21097;-85
2022/01/20 20:54:42;;;;;;;3.45;1.82;;;5.70;99.90;;;;;;1917603;75;21121;-87
2022/01/20 20:57:34;;;;;;;1.42;1.05;;;5.70;99.90;;;;;;1917648;75;21180;-86
2022/01/20 21:00:26;;;;;;;1.87;1.32;;;5.80;99.90;;;;;;1917840;75;21114;-86
2022/01/20 21:05:57;;;;;;;2.62;1.42;;;5.70;99.90;;;;;;1942733;72;22192;-87
2022/01/20 21:08:49;;;;;;;2.75;1.50;;;5.70;99.90;;;;;;1886538;75;21075;-87
2022/01/20 21:11:41;;;;;;;1.60;1.10;;;5.60;99.90;;;;;;1883588;75;21052;-87
2022/01/20 21:14:32;;;;;;;2.80;1.10;;;5.60;99.90;;;;;;1903995;75;21082;-86
2022/01/20 21:17:29;;;;;;;1.90;1.37;;;5.60;99.90;;;;;;1906882;75;21110;-85
2022/01/20 21:20:41;;;;;;;3.10;1.10;;;5.60;99.90;;;;;;1890923;75;21091;-86
2022/01/20 21:24:00;;;;;;;6.83;1.10;;;5.60;99.90;;;;;;1900721;75;21171;-87